Time;durP1;ratioP1;P1;durP2;ratioP2;P2;SDS_P1;SDS_P2;PMS_P1;PMS_P2;Temp;Humidity;BMP_temperature;BMP_pressure;BME280_temperature;BME280_humidity;BME280_pressure;Samples;Min_cycle;Max_cycle;Signal;HPM_P1;HPM_P2
2021/09/14 00:00:57;;;;;;;8.93;6.60;;;23.30;73.90;;;;;;5168566;28;20601;-73
2021/09/14 00:03:30;;;;;;;9.23;6.50;;;23.20;73.90;;;;;;5153534;28;20050;-73
2021/09/14 00:06:02;;;;;;;6.32;5.60;;;23.20;73.80;;;;;;5172921;28;20049;-73
2021/09/14 00:08:35;;;;;;;10.53;6.00;;;23.20;73.90;;;;;;5152162;28;20046;-73
2021/09/14 00:11:08;;;;;;;9.65;6.80;;;23.20;73.70;;;;;;5153772;28;20046;-73
2021/09/14 00:13:40;;;;;;;7.15;6.13;;;23.20;73.80;;;;;;5152955;28;20057;-73
2021/09/14 00:16:13;;;;;;;8.65;5.97;;;23.20;73.80;;;;;;5130480;28;20403;-74
2021/09/14 00:18:45;;;;;;;7.15;6.28;;;23.20;73.80;;;;;;5169945;28;20408;-74
2021/09/14 00:21:18;;;;;;;7.85;6.05;;;23.20;73.70;;;;;;5171048;28;20618;-73
2021/09/14 00:23:51;;;;;;;9.65;5.97;;;23.20;73.70;;;;;;5169733;28;20760;-74
2021/09/14 00:26:23;;;;;;;9.18;6.63;;;23.20;73.70;;;;;;5169387;28;20049;-73
2021/09/14 00:28:56;;;;;;;10.07;6.28;;;23.20;73.70;;;;;;5150025;28;20046;-73
2021/09/14 00:31:29;;;;;;;7.73;6.37;;;23.20;73.70;;;;;;5121225;28;20050;-74
2021/09/14 00:34:07;;;;;;;6.47;5.60;;;23.20;73.70;;;;;;5168770;28;20293;-74
2021/09/14 00:36:39;;;;;;;8.90;6.65;;;23.20;73.60;;;;;;5131977;28;20052;-74
2021/09/14 00:39:12;;;;;;;6.87;6.10;;;23.20;73.60;;;;;;5169739;28;20050;-73
2021/09/14 00:41:44;;;;;;;9.63;6.03;;;23.20;73.60;;;;;;5171202;28;20485;-74
2021/09/14 00:44:16;;;;;;;7.18;5.93;;;23.20;73.60;;;;;;5135146;28;20046;-74
2021/09/14 00:46:49;;;;;;;7.68;6.25;;;23.10;73.50;;;;;;5169040;28;20318;-73
2021/09/14 00:49:24;;;;;;;6.88;5.70;;;23.20;73.50;;;;;;5150269;28;20058;-74
2021/09/14 00:51:56;;;;;;;8.23;6.07;;;23.10;73.50;;;;;;5169759;28;20030;-74
2021/09/14 00:54:30;;;;;;;6.30;5.70;;;23.20;73.50;;;;;;5149455;28;20046;-74
2021/09/14 00:57:03;;;;;;;7.15;6.15;;;23.10;73.50;;;;;;5151212;28;20050;-74
2021/09/14 00:59:36;;;;;;;7.28;6.13;;;23.10;73.50;;;;;;5152130;28;20049;-74
2021/09/14 01:02:09;;;;;;;6.70;5.95;;;23.10;74.00;;;;;;5153551;28;20542;-74
2021/09/14 01:04:42;;;;;;;8.02;6.15;;;23.10;73.50;;;;;;5156180;28;20057;-74
2021/09/14 01:07:14;;;;;;;7.53;6.00;;;23.10;73.30;;;;;;5147985;28;20050;-74
2021/09/14 01:09:47;;;;;;;7.28;6.25;;;23.10;73.50;;;;;;5137141;28;20049;-74
2021/09/14 01:12:20;;;;;;;8.68;6.22;;;23.10;73.40;;;;;;5162420;28;20053;-74
2021/09/14 01:14:57;;;;;;;10.07;6.15;;;23.10;73.40;;;;;;5149824;28;20053;-73
2021/09/14 01:17:29;;;;;;;6.60;5.70;;;23.10;73.30;;;;;;5131268;28;20422;-74
2021/09/14 01:20:02;;;;;;;7.10;6.25;;;23.10;73.30;;;;;;5149064;28;20592;-74
2021/09/14 01:22:35;;;;;;;9.70;5.75;;;23.10;73.40;;;;;;5134149;28;20332;-74
2021/09/14 01:25:17;;;;;;;10.68;6.40;;;23.10;73.40;;;;;;5169203;28;20628;-74
2021/09/14 01:27:51;;;;;;;7.13;5.82;;;23.10;73.30;;;;;;5152375;28;20061;-73
2021/09/14 01:30:33;;;;;;;9.07;5.88;;;23.10;73.40;;;;;;5134299;28;20046;-73
2021/09/14 01:33:07;;;;;;;9.35;6.35;;;23.10;73.40;;;;;;5165584;28;20045;-73
2021/09/14 01:35:43;;;;;;;6.20;5.60;;;23.10;73.30;;;;;;5146851;28;20058;-74
2021/09/14 01:38:18;;;;;;;8.20;5.90;;;23.10;73.40;;;;;;5151535;28;20042;-74
2021/09/14 01:40:53;;;;;;;9.50;5.70;;;23.10;73.40;;;;;;5153532;28;20439;-74
2021/09/14 01:43:26;;;;;;;8.07;5.82;;;23.10;73.30;;;;;;5153049;28;20377;-76
2021/09/14 01:46:02;;;;;;;9.07;6.25;;;23.10;73.20;;;;;;5139449;28;20057;-76
2021/09/14 01:48:36;;;;;;;10.80;6.45;;;23.00;73.20;;;;;;5149322;28;20413;-75
2021/09/14 01:51:09;;;;;;;8.75;5.80;;;23.10;73.20;;;;;;5168965;28;20054;-75
2021/09/14 01:53:41;;;;;;;7.97;5.87;;;23.10;73.20;;;;;;5167891;28;20361;-75
2021/09/14 01:56:14;;;;;;;7.50;5.35;;;23.10;73.10;;;;;;5152953;28;20038;-75
2021/09/14 01:58:51;;;;;;;9.65;5.72;;;23.00;73.10;;;;;;5150191;28;20052;-75
2021/09/14 02:01:28;;;;;;;;;;;23.00;73.10;;;;;;5135516;28;20065;-76
2021/09/14 02:04:18;;;;;;;6.32;5.72;;;23.00;72.80;;;;;;5153467;28;19933;-75
2021/09/14 02:07:15;;;;;;;9.32;5.50;;;23.00;73.10;;;;;;5153322;28;20119;-75
2021/09/14 03:00:37;;;;;;;5.18;4.68;;;22.90;72.90;;;;;;5154002;28;20431;-75
2021/09/14 03:03:10;;;;;;;6.50;5.22;;;22.90;72.80;;;;;;5156224;28;20519;-75
2021/09/14 03:05:43;;;;;;;5.97;5.20;;;22.90;73.00;;;;;;5155116;28;20041;-75
2021/09/14 03:08:17;;;;;;;8.48;5.57;;;22.90;72.90;;;;;;5154236;28;20419;-74
2021/09/14 03:10:49;;;;;;;11.53;5.43;;;22.90;72.80;;;;;;5153122;28;20519;-74
2021/09/14 03:13:22;;;;;;;6.90;5.63;;;22.90;73.00;;;;;;5155265;28;20060;-75
2021/09/14 03:15:56;;;;;;;8.80;5.53;;;22.90;72.80;;;;;;5154820;28;20046;-75
2021/09/14 03:18:30;;;;;;;6.38;5.32;;;22.90;72.70;;;;;;5154600;28;20037;-75
2021/09/14 03:21:05;;;;;;;5.57;4.97;;;22.90;72.70;;;;;;5164259;28;20796;-75
2021/09/14 03:23:38;;;;;;;5.75;4.72;;;22.90;72.80;;;;;;5170526;28;20048;-75
2021/09/14 03:26:10;;;;;;;6.78;5.82;;;22.90;72.80;;;;;;5151254;28;20046;-75
2021/09/14 03:28:43;;;;;;;6.97;5.50;;;22.90;72.80;;;;;;5143807;28;20587;-75
2021/09/14 03:31:16;;;;;;;6.30;5.18;;;22.90;72.80;;;;;;5148539;28;20049;-75
2021/09/14 03:33:49;;;;;;;9.30;5.50;;;22.90;72.80;;;;;;5153518;28;20491;-75
2021/09/14 03:36:23;;;;;;;7.55;5.57;;;22.90;72.70;;;;;;5121342;28;20053;-75
2021/09/14 03:38:56;;;;;;;9.77;5.55;;;22.90;72.70;;;;;;5132490;28;20058;-75
2021/09/14 03:41:29;;;;;;;7.38;5.35;;;22.90;72.60;;;;;;5172791;28;20542;-74
2021/09/14 03:44:01;;;;;;;7.30;4.97;;;22.90;72.70;;;;;;5156196;28;20484;-75
2021/09/14 03:46:34;;;;;;;;;;;22.90;72.70;;;;;;5139742;28;20049;-75
2021/09/14 03:49:07;;;;;;;8.27;5.28;;;22.90;72.40;;;;;;5140422;28;19932;-75
2021/09/14 03:51:44;;;;;;;6.88;5.03;;;22.90;72.80;;;;;;5138469;28;20499;-75
2021/09/14 03:54:16;;;;;;;8.80;5.32;;;22.90;72.60;;;;;;5153529;28;20051;-75
2021/09/14 03:56:54;;;;;;;6.85;5.07;;;22.90;72.50;;;;;;5150930;28;20436;-75
2021/09/14 03:59:34;;;;;;;8.35;5.60;;;22.90;72.60;;;;;;5153557;28;20413;-75
2021/09/14 04:02:19;;;;;;;9.73;5.90;;;22.90;72.50;;;;;;5169860;28;20502;-75
2021/09/14 04:05:05;;;;;;;6.90;5.80;;;22.90;72.50;;;;;;5154397;28;20045;-75
2021/09/14 04:08:49;;;;;;;8.80;5.38;;;22.90;72.60;;;;;;5137186;28;20049;-75
2021/09/14 04:10:45;;;;;;;8.65;5.32;;;22.90;72.50;;;;;;5151919;28;20049;-75
2021/09/14 04:13:21;;;;;;;10.48;5.35;;;22.80;72.30;;;;;;5132367;28;20056;-74
2021/09/14 04:15:54;;;;;;;7.80;4.70;;;22.80;72.50;;;;;;5132959;28;20046;-74
2021/09/14 04:18:27;;;;;;;8.95;5.75;;;22.80;72.50;;;;;;5147425;28;20483;-74
2021/09/14 04:21:00;;;;;;;7.47;5.07;;;22.80;72.60;;;;;;5132973;28;20454;-74
2021/09/14 04:23:33;;;;;;;;;;;22.80;72.70;;;;;;5153699;28;20582;-74
2021/09/14 04:26:06;;;;;;;10.80;5.60;;;22.80;72.60;;;;;;5149195;28;19925;-74
2021/09/14 04:28:39;;;;;;;8.00;5.05;;;22.80;73.00;;;;;;5143887;28;20519;-74
2021/09/14 04:31:12;;;;;;;8.67;5.03;;;22.80;72.90;;;;;;5144267;28;20046;-74
2021/09/14 04:33:44;;;;;;;5.50;4.90;;;22.80;72.90;;;;;;5148326;28;20046;-74
2021/09/14 04:36:17;;;;;;;8.30;4.85;;;22.80;73.00;;;;;;5164387;28;20049;-75
2021/09/14 04:38:50;;;;;;;8.60;5.55;;;22.80;73.00;;;;;;5131678;28;20049;-73
2021/09/14 04:41:23;;;;;;;8.93;5.47;;;22.80;73.00;;;;;;5130178;28;20057;-74
2021/09/14 04:43:56;;;;;;;11.02;5.13;;;22.90;73.00;;;;;;5132748;28;20405;-74
2021/09/14 04:46:29;;;;;;;8.27;5.25;;;22.80;72.90;;;;;;5147329;28;20049;-74
2021/09/14 04:49:04;;;;;;;7.53;5.35;;;22.80;73.10;;;;;;5112311;28;20045;-75
2021/09/14 04:51:37;;;;;;;7.82;5.25;;;22.80;73.00;;;;;;5133029;28;20057;-73
2021/09/14 04:54:10;;;;;;;8.38;5.97;;;22.80;72.90;;;;;;5162047;28;20049;-73
2021/09/14 04:56:42;;;;;;;14.23;6.00;;;22.90;73.10;;;;;;5142008;28;20400;-73
2021/09/14 04:59:15;;;;;;;7.85;5.20;;;22.80;72.50;;;;;;5143683;28;20038;-73
2021/09/14 05:01:47;;;;;;;20.80;6.87;;;22.80;71.80;;;;;;5145660;28;20058;-73
2021/09/14 05:04:20;;;;;;;20.07;5.77;;;22.80;72.40;;;;;;5127802;28;20415;-73
2021/09/14 05:06:53;;;;;;;21.50;5.70;;;22.80;72.50;;;;;;5162076;28;20061;-74
2021/09/14 05:09:26;;;;;;;16.13;6.43;;;22.70;72.40;;;;;;5146966;28;20053;-73
2021/09/14 05:11:59;;;;;;;14.40;5.90;;;22.70;71.20;;;;;;5146293;28;20621;-74
2021/09/14 05:14:32;;;;;;;12.27;6.30;;;22.70;70.80;;;;;;5162831;28;20062;-73
2021/09/14 05:17:28;;;;;;;9.70;5.60;;;22.70;70.30;;;;;;5140366;28;20065;-73
2021/09/14 05:20:06;;;;;;;10.35;6.20;;;22.70;70.10;;;;;;5138080;28;20411;-74
2021/09/14 05:22:38;;;;;;;7.95;5.75;;;22.70;69.90;;;;;;5136999;28;20319;-74
2021/09/14 05:25:11;;;;;;;8.10;5.60;;;22.60;69.90;;;;;;5151541;28;20484;-73
2021/09/14 05:27:43;;;;;;;10.18;6.15;;;22.60;70.20;;;;;;5131448;28;20057;-73
2021/09/14 05:30:16;;;;;;;11.37;5.70;;;22.60;70.40;;;;;;5135554;28;20478;-73
2021/09/14 05:32:48;;;;;;;6.72;5.50;;;22.60;71.30;;;;;;5113959;28;20308;-73
2021/09/14 05:35:48;;;;;;;12.93;5.20;;;22.60;71.00;;;;;;5126911;28;20050;-74
2021/09/14 05:38:23;;;;;;;12.80;5.40;;;22.60;71.70;;;;;;5141252;28;20281;-74
2021/09/14 05:40:59;;;;;;;11.10;5.43;;;22.60;71.30;;;;;;5134269;28;20069;-73
2021/09/14 05:43:37;;;;;;;11.93;5.90;;;22.70;71.30;;;;;;5131705;28;20530;-73
2021/09/14 05:46:09;;;;;;;12.50;5.53;;;22.60;71.40;;;;;;5164440;28;20050;-73
2021/09/14 05:48:42;;;;;;;9.80;5.55;;;22.60;71.60;;;;;;5139418;28;20042;-73
2021/09/14 05:51:14;;;;;;;8.57;5.18;;;22.60;71.90;;;;;;5125708;28;20054;-74
2021/09/14 05:53:56;;;;;;;8.00;5.13;;;22.70;72.10;;;;;;5146919;28;20500;-73
2021/09/14 05:56:32;;;;;;;10.03;6.27;;;22.70;72.10;;;;;;5144655;28;20053;-73
2021/09/14 05:59:12;;;;;;;11.60;5.63;;;22.70;72.10;;;;;;5129022;28;20058;-73
2021/09/14 06:01:44;;;;;;;7.68;5.47;;;22.70;72.10;;;;;;5139197;28;20798;-74
2021/09/14 06:04:17;;;;;;;6.95;5.35;;;22.70;72.10;;;;;;5134434;28;20053;-73
2021/09/14 06:06:50;;;;;;;11.30;5.20;;;22.70;72.20;;;;;;5138780;28;20557;-73
2021/09/14 06:09:23;;;;;;;8.20;5.78;;;22.70;72.20;;;;;;5129223;28;20057;-73
2021/09/14 06:11:56;;;;;;;7.93;5.15;;;22.70;72.30;;;;;;5153088;28;20047;-73
2021/09/14 06:14:28;;;;;;;9.50;5.50;;;22.70;72.20;;;;;;5137534;28;20045;-73
2021/09/14 06:17:04;;;;;;;12.43;5.65;;;22.70;72.20;;;;;;5151330;28;20729;-73
2021/09/14 06:19:36;;;;;;;10.65;5.75;;;22.80;72.20;;;;;;5150334;28;20045;-74
2021/09/14 06:22:09;;;;;;;10.27;5.63;;;22.80;72.30;;;;;;5155351;28;20046;-73
2021/09/14 06:24:42;;;;;;;7.68;5.03;;;22.80;72.30;;;;;;5154569;28;20053;-73
2021/09/14 06:27:15;;;;;;;8.35;5.50;;;22.80;72.30;;;;;;5156107;28;20037;-74
2021/09/14 06:29:48;;;;;;;9.10;5.87;;;22.80;72.30;;;;;;5145580;28;20046;-73
2021/09/14 06:32:21;;;;;;;11.32;5.32;;;22.80;72.30;;;;;;5147497;28;20042;-74
2021/09/14 06:35:02;;;;;;;9.60;5.82;;;22.80;72.30;;;;;;5139166;28;20061;-74
2021/09/14 06:37:44;;;;;;;9.95;5.55;;;22.80;72.30;;;;;;5164888;28;20418;-74
2021/09/14 06:40:17;;;;;;;6.40;4.90;;;22.80;72.30;;;;;;5140932;28;20038;-74
2021/09/14 06:42:50;;;;;;;8.73;5.37;;;22.80;72.40;;;;;;5152725;28;20057;-73
2021/09/14 06:45:41;;;;;;;10.65;6.10;;;22.80;72.40;;;;;;5154618;28;20303;-73
2021/09/14 06:48:22;;;;;;;9.85;5.15;;;22.80;72.40;;;;;;5134805;28;20392;-73
2021/09/14 06:50:57;;;;;;;6.57;4.65;;;22.80;72.40;;;;;;5169613;28;20589;-73
2021/09/14 06:53:31;;;;;;;7.57;4.82;;;22.80;72.40;;;;;;5169876;28;20046;-74
2021/09/14 06:56:07;;;;;;;;;;;22.80;73.10;;;;;;5175373;28;20045;-74
2021/09/14 06:58:43;;;;;;;10.40;5.72;;;22.80;72.40;;;;;;5154008;28;19932;-74
2021/09/14 07:01:19;;;;;;;7.38;5.47;;;22.80;72.50;;;;;;5153979;28;20481;-74
2021/09/14 07:03:56;;;;;;;8.15;5.40;;;22.80;72.50;;;;;;5169754;28;20533;-74
2021/09/14 07:06:40;;;;;;;11.95;5.25;;;22.80;72.50;;;;;;5153886;28;20046;-74
2021/09/14 07:09:13;;;;;;;9.73;5.22;;;22.90;73.20;;;;;;5150842;28;20340;-74
2021/09/14 07:11:45;;;;;;;8.63;5.03;;;22.90;72.50;;;;;;5170637;28;20608;-73
2021/09/14 07:14:18;;;;;;;9.93;5.10;;;22.90;72.50;;;;;;5169994;28;20062;-74
2021/09/14 07:16:50;;;;;;;12.30;5.70;;;22.80;72.50;;;;;;5166662;28;20053;-74
2021/09/14 07:19:22;;;;;;;9.57;5.63;;;22.90;72.50;;;;;;5169416;28;20560;-74
2021/09/14 07:21:55;;;;;;;7.85;5.03;;;22.90;72.50;;;;;;5171503;28;20054;-74
2021/09/14 07:24:27;;;;;;;10.15;5.55;;;22.80;72.50;;;;;;5167919;28;20412;-74
2021/09/14 07:26:59;;;;;;;9.70;4.80;;;22.90;72.50;;;;;;5170854;28;20065;-74
2021/09/14 07:29:35;;;;;;;10.35;5.03;;;22.90;72.50;;;;;;5167131;28;20509;-74
2021/09/14 07:32:08;;;;;;;8.38;4.60;;;22.90;72.50;;;;;;5147083;28;20050;-74
2021/09/14 07:34:40;;;;;;;5.78;4.93;;;22.90;72.50;;;;;;5150776;28;20343;-74
2021/09/14 07:37:12;;;;;;;9.48;5.63;;;22.90;72.60;;;;;;5171684;28;20365;-73
2021/09/14 07:39:46;;;;;;;8.07;4.78;;;22.90;72.50;;;;;;5171205;28;20585;-73
2021/09/14 07:42:18;;;;;;;7.13;4.78;;;22.90;72.60;;;;;;5169318;28;20041;-73
2021/09/14 07:44:51;;;;;;;6.43;5.20;;;22.90;72.60;;;;;;5148639;28;20546;-73
2021/09/14 07:47:24;;;;;;;6.23;4.70;;;22.90;72.60;;;;;;5168462;28;20050;-73
2021/09/14 07:49:56;;;;;;;7.85;4.57;;;22.90;72.70;;;;;;5166864;28;20057;-73
2021/09/14 07:52:28;;;;;;;5.40;4.78;;;22.90;72.60;;;;;;5167989;28;20057;-72
2021/09/14 07:55:01;;;;;;;5.95;4.63;;;22.90;72.70;;;;;;5168660;28;20636;-73
2021/09/14 07:57:33;;;;;;;8.07;4.65;;;22.90;72.70;;;;;;5160109;28;20415;-73
2021/09/14 08:00:06;;;;;;;8.15;5.00;;;22.90;72.70;;;;;;5170173;28;20380;-72
2021/09/14 08:02:52;;;;;;;7.47;4.70;;;22.90;72.70;;;;;;5170573;28;20053;-72
2021/09/14 08:05:27;;;;;;;6.35;4.93;;;22.90;72.70;;;;;;5160589;28;20534;-73
2021/09/14 08:08:00;;;;;;;6.80;4.65;;;22.90;72.70;;;;;;5149333;28;20495;-73
2021/09/14 08:10:35;;;;;;;6.75;4.78;;;22.90;72.70;;;;;;5167073;28;20041;-73
2021/09/14 08:13:07;;;;;;;5.15;4.38;;;22.90;72.80;;;;;;5170725;28;20492;-75
2021/09/14 08:15:40;;;;;;;5.57;4.85;;;22.90;72.70;;;;;;5168281;28;20050;-73
2021/09/14 08:18:12;;;;;;;7.18;4.75;;;23.00;72.80;;;;;;5148676;28;20041;-73
2021/09/14 08:20:44;;;;;;;6.10;4.50;;;23.00;72.80;;;;;;5166988;28;20506;-73
2021/09/14 08:23:17;;;;;;;5.93;4.93;;;23.00;72.80;;;;;;5168510;28;20042;-72
2021/09/14 08:25:49;;;;;;;6.03;4.35;;;23.00;72.80;;;;;;5168782;28;20053;-73
2021/09/14 08:28:22;;;;;;;5.57;5.07;;;22.90;72.70;;;;;;5166192;28;20060;-73
2021/09/14 08:30:54;;;;;;;6.07;4.55;;;23.00;72.80;;;;;;5163745;28;20061;-73
2021/09/14 08:33:28;;;;;;;6.35;4.28;;;23.00;72.80;;;;;;5166627;28;20042;-72
2021/09/14 08:36:00;;;;;;;5.32;4.63;;;23.00;72.80;;;;;;5168014;28;20068;-72
2021/09/14 08:38:33;;;;;;;5.00;4.40;;;23.00;72.80;;;;;;5167981;28;20423;-73
2021/09/14 08:41:06;;;;;;;5.88;4.93;;;23.00;72.80;;;;;;5165796;28;20046;-73
2021/09/14 08:43:43;;;;;;;5.13;4.53;;;23.00;72.90;;;;;;5169688;28;20372;-72
2021/09/14 08:46:17;;;;;;;8.38;5.00;;;23.00;72.80;;;;;;5165156;28;20054;-72
2021/09/14 08:48:50;;;;;;;6.82;4.97;;;23.00;72.80;;;;;;5165269;28;20418;-73
2021/09/14 08:51:23;;;;;;;5.72;4.57;;;23.00;72.80;;;;;;5147396;28;20061;-73
2021/09/14 08:53:55;;;;;;;6.18;4.22;;;23.00;72.90;;;;;;5166018;28;20054;-73
2021/09/14 08:56:27;;;;;;;4.63;4.15;;;23.00;72.90;;;;;;5165876;28;20051;-72
2021/09/14 08:59:03;;;;;;;5.15;4.53;;;23.00;72.90;;;;;;5167715;28;20464;-73
2021/09/14 09:01:35;;;;;;;6.05;4.45;;;23.00;72.90;;;;;;5164545;28;20415;-73
2021/09/14 09:04:11;;;;;;;5.77;4.70;;;23.00;72.80;;;;;;5167069;28;20420;-72
2021/09/14 09:06:44;;;;;;;4.90;4.28;;;23.00;72.90;;;;;;5165031;28;20589;-72
2021/09/14 09:09:19;;;;;;;5.25;4.32;;;23.00;72.90;;;;;;5172781;28;20061;-72
2021/09/14 09:11:58;;;;;;;6.47;4.13;;;23.00;72.90;;;;;;5166340;28;20426;-72
2021/09/14 09:14:41;;;;;;;5.45;4.03;;;23.00;73.00;;;;;;5147267;28;20291;-73
2021/09/14 09:17:16;;;;;;;4.95;4.40;;;23.00;72.90;;;;;;5166472;28;20898;-73
2021/09/14 09:20:06;;;;;;;5.20;4.70;;;23.00;72.90;;;;;;5170600;28;20053;-72
2021/09/14 09:22:38;;;;;;;5.45;4.22;;;23.00;72.90;;;;;;5151353;28;20046;-74
2021/09/14 09:25:11;;;;;;;4.70;4.05;;;23.00;72.90;;;;;;5148000;28;20058;-74
2021/09/14 09:27:43;;;;;;;4.57;4.13;;;23.10;72.90;;;;;;5170103;28;20131;-73
2021/09/14 09:30:19;;;;;;;4.60;4.13;;;23.10;72.90;;;;;;5171382;28;20057;-74
2021/09/14 09:32:51;;;;;;;5.47;4.15;;;23.10;72.90;;;;;;5167774;28;20127;-74
2021/09/14 09:35:29;;;;;;;5.80;4.60;;;23.00;72.80;;;;;;5173803;28;20069;-74
2021/09/14 09:38:02;;;;;;;4.47;3.85;;;23.10;72.90;;;;;;5165547;28;20042;-75
2021/09/14 09:40:37;;;;;;;5.30;4.32;;;23.10;72.90;;;;;;5166715;28;20050;-74
2021/09/14 09:43:11;;;;;;;4.75;4.28;;;23.10;72.90;;;;;;5163106;28;20500;-74
2021/09/14 09:45:44;;;;;;;;;;;23.10;72.90;;;;;;5169556;28;20045;-74
2021/09/14 09:48:16;;;;;;;5.55;3.80;;;23.00;72.90;;;;;;5148612;28;20270;-74
2021/09/14 09:50:49;;;;;;;6.35;4.82;;;23.00;72.90;;;;;;5167269;28;20057;-74
2021/09/14 09:53:23;;;;;;;6.03;4.30;;;23.10;73.00;;;;;;5160938;28;20632;-74
2021/09/14 09:55:57;;;;;;;7.07;4.20;;;23.00;72.90;;;;;;5165468;28;20526;-74
2021/09/14 09:58:30;;;;;;;5.57;4.30;;;23.10;73.00;;;;;;5166941;28;20053;-74
2021/09/14 10:01:17;;;;;;;5.10;4.10;;;23.10;73.00;;;;;;5161062;28;20049;-72
2021/09/14 10:04:03;;;;;;;4.47;3.90;;;23.10;72.90;;;;;;5157618;28;20506;-73
2021/09/14 10:06:42;;;;;;;4.70;4.20;;;23.10;72.90;;;;;;5162760;28;20053;-74
2021/09/14 10:09:15;;;;;;;5.45;4.15;;;23.10;72.90;;;;;;5168150;28;20049;-74
2021/09/14 10:11:54;;;;;;;5.47;4.20;;;23.10;73.00;;;;;;5160887;28;20050;-73
2021/09/14 10:14:27;;;;;;;4.78;3.95;;;23.10;73.40;;;;;;5154011;28;20061;-74
2021/09/14 10:17:09;;;;;;;6.65;4.15;;;23.10;73.00;;;;;;5165811;28;20045;-74
2021/09/14 10:19:42;;;;;;;5.50;4.00;;;23.10;73.00;;;;;;5148415;28;20053;-74
2021/09/14 10:22:23;;;;;;;4.53;3.80;;;23.10;73.00;;;;;;5166973;28;20046;-74
2021/09/14 10:24:59;;;;;;;6.82;4.05;;;23.20;73.10;;;;;;5162341;28;20058;-74
2021/09/14 10:27:40;;;;;;;7.28;4.43;;;23.10;73.00;;;;;;5161908;28;20060;-74
2021/09/14 10:30:14;;;;;;;6.25;4.15;;;23.20;73.10;;;;;;5144338;28;20068;-74
2021/09/14 10:32:47;;;;;;;5.68;4.63;;;23.10;73.00;;;;;;5161902;28;20053;-73
2021/09/14 10:35:31;;;;;;;7.80;4.90;;;23.20;73.10;;;;;;5163819;28;20049;-74
2021/09/14 10:38:06;;;;;;;6.15;4.35;;;23.20;73.00;;;;;;5165987;28;20301;-73
2021/09/14 10:40:46;;;;;;;5.25;4.40;;;23.20;73.00;;;;;;5161604;28;20049;-73
2021/09/14 10:43:32;;;;;;;4.70;4.20;;;23.20;73.00;;;;;;5163610;28;20050;-74
2021/09/14 10:46:04;;;;;;;5.93;4.20;;;23.20;72.90;;;;;;5161458;28;20045;-73
2021/09/14 10:48:47;;;;;;;6.82;4.60;;;23.20;72.90;;;;;;5165179;28;20065;-74
2021/09/14 10:51:20;;;;;;;5.55;4.30;;;23.30;72.90;;;;;;5154745;28;20057;-73
2021/09/14 10:53:59;;;;;;;5.07;4.15;;;23.30;72.90;;;;;;5161886;28;20061;-73
2021/09/14 10:56:32;;;;;;;5.93;4.03;;;23.30;72.80;;;;;;5161260;28;20052;-73
2021/09/14 10:59:04;;;;;;;5.68;4.35;;;23.30;72.80;;;;;;5163657;28;20054;-73
2021/09/14 11:01:36;;;;;;;6.95;4.40;;;23.40;72.80;;;;;;5164160;28;20062;-73
2021/09/14 11:04:09;;;;;;;4.70;4.03;;;23.40;72.80;;;;;;5148739;28;20060;-73
2021/09/14 11:06:47;;;;;;;6.72;3.70;;;23.40;72.70;;;;;;5167518;28;20061;-73
2021/09/14 11:09:25;;;;;;;7.03;4.47;;;23.50;72.70;;;;;;5168139;28;20042;-74
2021/09/14 11:11:57;;;;;;;5.78;4.22;;;23.50;72.60;;;;;;5151309;28;20046;-73
2021/09/14 11:14:36;;;;;;;4.85;4.13;;;23.50;72.50;;;;;;5167293;28;20054;-74
2021/09/14 11:17:08;;;;;;;5.28;4.78;;;23.60;72.50;;;;;;5166400;28;20065;-73
2021/09/14 11:19:41;;;;;;;6.25;4.63;;;23.60;72.40;;;;;;5154923;28;20225;-74
2021/09/14 11:22:13;;;;;;;5.07;4.45;;;23.60;72.50;;;;;;5162346;28;20480;-73
2021/09/14 11:24:55;;;;;;;4.80;4.30;;;23.70;72.30;;;;;;5154374;28;20041;-73
2021/09/14 11:27:28;;;;;;;7.65;4.70;;;23.70;72.20;;;;;;5148958;28;20515;-74
2021/09/14 11:30:01;;;;;;;6.68;4.68;;;23.70;72.20;;;;;;5152484;28;20058;-73
2021/09/14 11:32:34;;;;;;;7.53;5.10;;;23.80;72.10;;;;;;5142468;28;20047;-73
2021/09/14 11:35:08;;;;;;;6.65;4.35;;;23.80;72.00;;;;;;5164237;28;20057;-73
2021/09/14 11:37:41;;;;;;;5.82;4.40;;;23.80;71.90;;;;;;5140293;28;20057;-73
2021/09/14 11:40:18;;;;;;;6.23;5.00;;;23.90;72.00;;;;;;5142217;28;20569;-78
2021/09/14 11:42:51;;;;;;;7.45;5.70;;;23.90;72.10;;;;;;5149538;28;20297;-79
2021/09/14 11:45:26;;;;;;;7.80;5.10;;;23.90;72.20;;;;;;5141618;28;20654;-79
2021/09/14 11:48:01;;;;;;;7.25;5.00;;;24.00;72.70;;;;;;5134571;28;20326;-78
2021/09/14 11:50:42;;;;;;;8.40;5.22;;;24.20;72.00;;;;;;5144110;28;20053;-78
2021/09/14 11:53:19;;;;;;;6.45;5.03;;;24.40;71.70;;;;;;5133664;28;20046;-79
2021/09/14 11:55:52;;;;;;;8.80;4.65;;;24.50;71.30;;;;;;5123985;28;20065;-79
2021/09/14 11:58:33;;;;;;;10.77;5.35;;;24.70;70.80;;;;;;5132277;28;20045;-79
2021/09/14 12:01:08;;;;;;;8.85;6.20;;;24.80;70.50;;;;;;5140239;28;22400;-78
2021/09/14 12:03:47;;;;;;;10.13;5.30;;;24.90;70.30;;;;;;5134556;28;20045;-79
2021/09/14 12:06:26;;;;;;;9.00;5.30;;;25.00;70.20;;;;;;5155485;28;20053;-79
2021/09/14 12:09:01;;;;;;;9.43;5.00;;;25.10;70.00;;;;;;5147201;28;20049;-78
2021/09/14 12:11:36;;;;;;;11.23;6.05;;;25.20;69.70;;;;;;5141179;28;20053;-79
2021/09/14 12:14:11;;;;;;;10.68;5.97;;;25.40;69.60;;;;;;5141731;28;20046;-79
2021/09/14 12:16:44;;;;;;;9.77;5.38;;;25.50;69.40;;;;;;5142449;28;20054;-79
2021/09/14 12:19:17;;;;;;;7.55;5.63;;;25.60;69.80;;;;;;5126812;28;20619;-79
2021/09/14 12:21:49;;;;;;;8.80;5.05;;;25.60;68.90;;;;;;5144209;28;20046;-79
2021/09/14 12:24:23;;;;;;;6.37;5.17;;;25.70;68.70;;;;;;5111882;28;20061;-78
2021/09/14 12:26:55;;;;;;;;;;;25.90;68.60;;;;;;5131244;28;20814;-79
2021/09/14 12:29:28;;;;;;;8.13;5.40;;;25.90;68.20;;;;;;5129342;28;20977;-79
2021/09/14 12:32:00;;;;;;;8.50;5.70;;;26.00;68.20;;;;;;5128413;28;20555;-80
2021/09/14 12:34:34;;;;;;;9.65;5.60;;;26.00;68.00;;;;;;5102428;28;20640;-79
2021/09/14 12:37:06;;;;;;;7.27;5.50;;;26.10;67.90;;;;;;5102321;28;20501;-79
2021/09/14 12:39:39;;;;;;;11.07;6.78;;;26.20;67.80;;;;;;5106087;28;20229;-79
2021/09/14 12:42:11;;;;;;;7.65;6.32;;;26.20;67.50;;;;;;5129982;28;20403;-79
2021/09/14 12:44:43;;;;;;;9.77;6.20;;;26.20;67.40;;;;;;5117920;28;20268;-79
2021/09/14 12:47:16;;;;;;;8.77;6.50;;;26.30;67.30;;;;;;5118296;28;20054;-79
2021/09/14 12:49:48;;;;;;;8.27;6.10;;;26.30;67.20;;;;;;5142728;28;20046;-79
2021/09/14 12:52:21;;;;;;;11.05;6.22;;;26.20;67.10;;;;;;5143831;28;20064;-79
2021/09/14 12:55:12;;;;;;;7.60;6.13;;;26.30;67.00;;;;;;5145467;28;20435;-79
2021/09/14 12:57:45;;;;;;;11.95;7.35;;;26.30;67.00;;;;;;5145635;28;20087;-79
2021/09/14 13:00:18;;;;;;;7.18;6.05;;;26.30;67.00;;;;;;5117857;28;20038;-79
2021/09/14 13:02:50;;;;;;;9.48;6.35;;;26.20;66.90;;;;;;5146112;28;20046;-79
2021/09/14 13:05:26;;;;;;;8.20;6.20;;;26.20;66.90;;;;;;5139089;28;20523;-79
2021/09/14 13:07:59;;;;;;;7.57;6.18;;;26.20;66.90;;;;;;5122569;28;20608;-79
2021/09/14 13:10:36;;;;;;;8.32;6.55;;;26.20;66.90;;;;;;5147296;28;20045;-79
2021/09/14 13:16:11;;;;;;;7.53;5.95;;;26.20;66.80;;;;;;5147664;28;19925;-79
2021/09/14 13:18:47;;;;;;;7.10;5.93;;;26.20;67.00;;;;;;5147283;28;20587;-79
2021/09/14 13:21:22;;;;;;;8.27;5.57;;;26.20;67.00;;;;;;5106495;28;20604;-79
2021/09/14 13:23:55;;;;;;;7.55;5.93;;;26.20;67.00;;;;;;5131443;28;20046;-79
2021/09/14 13:26:27;;;;;;;9.27;5.67;;;26.20;67.00;;;;;;5122966;28;20046;-79
2021/09/14 13:28:59;;;;;;;7.68;5.93;;;26.20;67.00;;;;;;5146933;28;20119;-79
2021/09/14 13:31:32;;;;;;;8.80;6.22;;;26.20;67.00;;;;;;5147389;28;20049;-79
2021/09/14 13:34:04;;;;;;;10.95;6.03;;;26.20;66.90;;;;;;5154174;28;20049;-79
2021/09/14 13:36:37;;;;;;;10.02;6.10;;;26.20;67.00;;;;;;5132335;28;20046;-79
2021/09/14 13:39:09;;;;;;;9.93;6.80;;;26.20;66.90;;;;;;5153170;28;20062;-79
2021/09/14 13:41:47;;;;;;;8.85;5.55;;;26.20;66.80;;;;;;5141943;28;20057;-80
2021/09/14 13:47:08;;;;;;;6.57;5.30;;;26.10;66.80;;;;;;5105648;28;20404;-79
2021/09/14 13:49:42;;;;;;;6.30;5.25;;;26.10;67.00;;;;;;5145746;28;20053;-79
2021/09/14 13:52:16;;;;;;;8.45;6.05;;;26.10;67.00;;;;;;5128804;28;20550;-79
2021/09/14 13:54:49;;;;;;;7.43;5.82;;;26.10;67.00;;;;;;5153617;28;20487;-79
2021/09/14 13:57:21;;;;;;;7.70;5.57;;;26.10;67.00;;;;;;5151649;28;20403;-79
2021/09/14 13:59:55;;;;;;;8.25;5.65;;;26.00;66.90;;;;;;5153650;28;20046;-79
2021/09/14 14:02:27;;;;;;;;;;;26.00;67.00;;;;;;5155171;28;20431;-80
2021/09/14 14:05:02;;;;;;;6.35;5.68;;;26.00;67.10;;;;;;5127175;28;20375;-79
2021/09/14 14:07:35;;;;;;;6.63;5.93;;;26.00;67.20;;;;;;5155826;28;20538;-79
2021/09/14 14:10:08;;;;;;;7.20;5.63;;;26.00;67.20;;;;;;5149413;28;20050;-79
2021/09/14 14:12:40;;;;;;;6.20;5.60;;;26.00;67.20;;;;;;5157388;28;20050;-79
2021/09/14 14:15:12;;;;;;;7.88;5.78;;;26.00;67.20;;;;;;5153379;28;20050;-79
2021/09/14 14:17:45;;;;;;;8.43;5.77;;;26.00;67.20;;;;;;5156620;28;20562;-79
2021/09/14 14:20:17;;;;;;;7.10;5.30;;;26.00;67.30;;;;;;5156034;28;20045;-79
2021/09/14 14:22:50;;;;;;;6.30;5.70;;;26.00;67.30;;;;;;5150917;28;20053;-79